Montezuma, NM (87731)

5:55 AM MST on February 21, 2017 (GMT -0700)
Pendaries RV Resort | | Change Station
Active Advisory: Fire Weather Watch

Elev 7750 ft 35.85 °N, 105.40 °W | Updated 2 seconds ago

Clear
Clear
50.4 °F
Feels Like 50.4 °F
N
15.0
Wind Variable Wind from West
Gusts 15.0 mph

Today
High -- | Low -- °F
--% Chance of Precip.
Yesterday
High -- | Low -- °F
Precip. -- in
Pressure 30.07 in
Visibility 10.0 miles
Clouds Clear
Dew Point 24 °F
Humidity 36%
Rainfall 0.00 in
Snow Depth Not available.
6:41 AM 5:49 PM
Waning Crescent, 25% visible
METAR KLVS 211153Z AUTO 36006KT 10SM CLR 01/M09 A3020 RMK AO2 SLP181 T00061094 10039 21044 55002
Pressure 30.07 in
Visibility 10.0 miles
Clouds Clear
Dew Point 24 °F
Humidity 36%
Rainfall 0.00 in
Snow Depth Not available.
6:41 AM 5:49 PM
Waning Crescent, 25% visible
METAR KLVS 211153Z AUTO 36006KT 10SM CLR 01/M09 A3020 RMK AO2 SLP181 T00061094 10039 21044 55002

Get Your Daily Forecast Email!

Thanks for signing up!

Be on the lookout for a verification email in your inbox.

You'll start receiving the daily forecast at 8 AM.

×

10-Day Weather Forecast

Almanac

Astronomy

Feb. 21, 2017 Rise Set
Actual Time
Civil Twilight
Nautical Twilight
Astronomical Twilight
Moon
Length of Visible Light
Length of Day
Tomorrow will be .
, % of the Moon is Illuminated

Today's Extremes

State Highs State Lows

Community

WunderPhotos

Upload Photos

1,962,540 photos uploaded!

WunderBlog® & News

Nearby

Air Quality

  Air Quality AQ Index Pollutant
Not available.

Snow Depth

Station Depth Elevation

Earthquake Activity

City Distance Mag. Time & Date
Minimum magnitude displayed is 2.5.

Coastal Water Temperatures

Place Temperature

Stations

Nearby Weather Stations

Station Location Temp. Windchill Dew Point Humidity Wind Precip. Elev Updated Type
                   

Watches & Warnings

Fire Weather Watch
Issued: 7:29 AM MST Feb. 20, 2017 – National Weather Service

... Fire Weather Watch in effect Wednesday afternoon...

The National Weather Service in Albuquerque has issued a Fire
Weather Watch... which is in effect Wednesday afternoon.

* Area and timing... plains or lower elevation portion of the northeast
Highlands Wednesday afternoon.


* 20 foot winds... westerly 20 to 25 mph with gusts possible to 35
mph.

* Relative humidity... minimum values 10 to 15 percent along and
east of Interstate 25.

* Impacts... any fires that develop will likely spread rapidly.
Outdoor burning is not recommended.

Precautionary/preparedness actions...

Please advise the appropriate officials or fire crews in the
field of this Fire Weather Watch.